Portada
METAR-TAF:

METAR-TAF

Aeroports :

Ha'il, Aràbia Saudita

latitud: 27-26N, longitud: 041-41E, altitud: 1015 m

Observació

L'informe es va fer fa 1 hora i 9 minuts, a les 17:00 UTC
Vent 6 kt del Est/Nord-Est
Temperatura 37°C
Humitat 13%
Pressió 1012 hPa
Visibilitat 10 km o més
sense núvols per sota de 1500 mi sense presència de cumulonimbus.

METAR: OEHL 161700Z 06006KT CAVOK 37/04 Q1012

Hora: 21:09 (18:09 UTC)

Pronòstic

L'informe es va fer fa 7 hores i 9 minuts, a les 11:00 UTC
Pronòstic vàlid del 16 a les 12 UTC al 17 a les 18 UTC
Vent 10 kt del Nord
Visibilitat: 7000 m
Evolucionant progressivament
l' 16 a les 20 UTC al 16 a les 22 UTC
Vent 6 kt del Nord-Est
Visibilitat 10 km o més
Escasses núvols a una alçada de 4000 ft

TAF: OEHL 161100Z 1612/1718 36010KT 7000 NSC BECMG 1620/1622 04006KT 9999 FEW040

Observacions i pronòstics meteorològics de més de 4000 aeroports (METAR i TAF).

Les estacions disponibles són els punts grocs i vermells al mapa.

Posi el ratolí al punt desitjat per veure el nom de l'estació.

Feu clic per veure les observacions i els pronòstics meteorològics.

Per canviar el mapa: feu clic els botons verds amb una creu de color negre per apropar; al botó verd amb un guió per allunyar la imatge; o en les fletxes verdes per a mapes adjacents.


METAR-TAF: